Terminal Aerodrome Forecast
Issued by NWS

Home | Current Version | Previous Version | Text Only | Print | Product List | Glossary On
Versions: 1 2 3 4 5 6 7 8 9 10 11 12 13 14 15 16 17 18 19 20 21 22 23 24 25
741
FTPQ31 PGUM 302332
TAFGUM
TAF

TAF
PTRO 302332Z 3100/3124 10007KT P6SM VCTS SCT016CB BKN040 OVC120
      TEMPO 3100/3104 VRB15KT 2SM +TSRA OVC016CB
     FM310400 10008KT P6SM VCSH SCT016 BKN040 BKN120
      TEMPO 3104/3108 -SHRA BKN016 BKN040 BKN120=

USA.gov is the U.S. government's official web portal to all federal, state and local government web resources and services.